Terminal Aerodrome Forecast
Issued by NWS

Home | Current Version | Previous Version | Text Only | Print | Product List | Glossary On
Versions: 1 2 3 4 5 6 7 8 9 10 11 12 13 14 15
000
FTUS44 KEPZ 201100
TAFDMN
TAF
KDMN 201135Z 2012/2112 26011KT P6SM SCT140 SCT250
     FM201800 29012KT P6SM FEW070 SCT150
     FM202300 28010KT P6SM VCTS SCT070CB SCT150=

USA.gov is the U.S. government's official web portal to all federal, state and local government web resources and services.